DLH3KK EDDF-EDDN
Flight info
| Callsign | DLH3KK |
|---|---|
| Flight time | 0h 30m |
| Altitude | 23000 |
| Route | CINDY8S CINDY Z74 HAREM T104 ELMOX DCT LETKU LETKU1V |
| Aircraft | A319/M-SDE3FGHIRWY/LB1 |
Departure
| Time | 2026-05-07 11:07 |
|---|---|
| Airport | Frankfurt Main Airport (EDDF) |
Arrival
| Time | 2026-05-07 11:38 |
|---|---|
| Airport | Nuremberg Airport (EDDN) |
| Time | Latitude | Longitude | Altitude | Speed | Heading |
|---|---|---|---|---|---|
| 2026-05-07 10:22 | 50.04940 | 8.59769 | 354 ft | 0 kts | 297° |
| 2026-05-07 10:50 | 50.04935 | 8.59784 | 355 ft | 4 kts | 297° |
| 2026-05-07 10:50 | 50.04923 | 8.59822 | 346 ft | 4 kts | 294° |
| 2026-05-07 10:50 | 50.04915 | 8.59860 | 346 ft | 4 kts | 263° |
| 2026-05-07 10:50 | 50.04917 | 8.59873 | 354 ft | 0 kts | 250° |
| 2026-05-07 10:53 | 50.04914 | 8.59861 | 350 ft | 3 kts | 249° |
| 2026-05-07 10:53 | 50.04906 | 8.59827 | 346 ft | 3 kts | 249° |
| 2026-05-07 10:53 | 50.04895 | 8.59783 | 349 ft | 6 kts | 249° |
| 2026-05-07 10:54 | 50.04878 | 8.59711 | 346 ft | 9 kts | 249° |
| 2026-05-07 10:54 | 50.04857 | 8.59625 | 349 ft | 7 kts | 249° |
| 2026-05-07 10:54 | 50.04845 | 8.59575 | 346 ft | 0 kts | 249° |
| 2026-05-07 10:55 | 50.04844 | 8.59571 | 350 ft | 1 kts | 249° |
| 2026-05-07 10:55 | 50.04833 | 8.59540 | 346 ft | 7 kts | 232° |
| 2026-05-07 10:56 | 50.04784 | 8.59553 | 352 ft | 9 kts | 147° |
| 2026-05-07 10:56 | 50.04722 | 8.59610 | 346 ft | 11 kts | 163° |
| 2026-05-07 10:56 | 50.04635 | 8.59623 | 349 ft | 14 kts | 175° |
| 2026-05-07 10:56 | 50.04529 | 8.59630 | 346 ft | 16 kts | 180° |
| 2026-05-07 10:57 | 50.04414 | 8.59630 | 346 ft | 18 kts | 179° |
| 2026-05-07 10:57 | 50.04281 | 8.59639 | 353 ft | 20 kts | 177° |
| 2026-05-07 10:57 | 50.04136 | 8.59598 | 352 ft | 23 kts | 200° |
| 2026-05-07 10:57 | 50.03994 | 8.59501 | 346 ft | 21 kts | 212° |
| 2026-05-07 10:58 | 50.03899 | 8.59360 | 346 ft | 19 kts | 232° |
| 2026-05-07 10:58 | 50.03851 | 8.59200 | 349 ft | 16 kts | 249° |
| 2026-05-07 10:58 | 50.03816 | 8.59056 | 346 ft | 10 kts | 250° |
| 2026-05-07 10:58 | 50.03797 | 8.58975 | 350 ft | 10 kts | 250° |
| 2026-05-07 10:59 | 50.03769 | 8.58857 | 346 ft | 13 kts | 250° |
| 2026-05-07 10:59 | 50.03735 | 8.58708 | 350 ft | 16 kts | 250° |
| 2026-05-07 10:59 | 50.03692 | 8.58527 | 346 ft | 19 kts | 250° |
| 2026-05-07 10:59 | 50.03643 | 8.58320 | 354 ft | 22 kts | 248° |
| 2026-05-07 11:00 | 50.03584 | 8.58091 | 348 ft | 24 kts | 250° |
| 2026-05-07 11:00 | 50.03524 | 8.57837 | 349 ft | 26 kts | 250° |
| 2026-05-07 11:00 | 50.03460 | 8.57563 | 346 ft | 28 kts | 250° |
| 2026-05-07 11:00 | 50.03391 | 8.57271 | 346 ft | 30 kts | 250° |
| 2026-05-07 11:01 | 50.03327 | 8.56995 | 346 ft | 19 kts | 250° |
| 2026-05-07 11:01 | 50.03297 | 8.56869 | 346 ft | 10 kts | 250° |
| 2026-05-07 11:01 | 50.03325 | 8.56790 | 353 ft | 10 kts | 323° |
| 2026-05-07 11:01 | 50.03346 | 8.56694 | 346 ft | 12 kts | 251° |
| 2026-05-07 11:02 | 50.03315 | 8.56565 | 346 ft | 14 kts | 249° |
| 2026-05-07 11:02 | 50.03277 | 8.56406 | 346 ft | 17 kts | 249° |
| 2026-05-07 11:02 | 50.03227 | 8.56200 | 351 ft | 23 kts | 249° |
| 2026-05-07 11:02 | 50.03168 | 8.55954 | 350 ft | 25 kts | 249° |
| 2026-05-07 11:03 | 50.03107 | 8.55701 | 346 ft | 20 kts | 249° |
| 2026-05-07 11:03 | 50.03054 | 8.55484 | 346 ft | 23 kts | 249° |
| 2026-05-07 11:03 | 50.02997 | 8.55243 | 346 ft | 25 kts | 250° |
| 2026-05-07 11:03 | 50.02935 | 8.54981 | 346 ft | 27 kts | 250° |
| 2026-05-07 11:04 | 50.02858 | 8.54833 | 346 ft | 18 kts | 187° |
| 2026-05-07 11:04 | 50.02776 | 8.54707 | 346 ft | 20 kts | 250° |
| 2026-05-07 11:04 | 50.02744 | 8.54566 | 350 ft | 21 kts | 250° |
| 2026-05-07 11:04 | 50.02691 | 8.54334 | 348 ft | 24 kts | 250° |
| 2026-05-07 11:05 | 50.02636 | 8.54074 | 346 ft | 26 kts | 252° |
| 2026-05-07 11:05 | 50.02571 | 8.53797 | 350 ft | 28 kts | 249° |
| 2026-05-07 11:05 | 50.02501 | 8.53504 | 346 ft | 30 kts | 249° |
| 2026-05-07 11:05 | 50.02427 | 8.53193 | 347 ft | 31 kts | 250° |
| 2026-05-07 11:06 | 50.02352 | 8.52880 | 346 ft | 28 kts | 249° |
| 2026-05-07 11:06 | 50.02303 | 8.52670 | 346 ft | 18 kts | 253° |
| 2026-05-07 11:06 | 50.02208 | 8.52606 | 346 ft | 17 kts | 178° |
| 2026-05-07 11:06 | 50.02033 | 8.52609 | 346 ft | 55 kts | 179° |
| 2026-05-07 11:07 | 50.01308 | 8.52614 | 350 ft | 148 kts | 179° |
| 2026-05-07 11:07 | 50.00204 | 8.52610 | 1065 ft | 161 kts | 181° |
| 2026-05-07 11:07 | 49.99070 | 8.52611 | 2036 ft | 166 kts | 181° |
| 2026-05-07 11:07 | 49.97836 | 8.52657 | 2751 ft | 190 kts | 175° |
| 2026-05-07 11:08 | 49.96539 | 8.53518 | 3360 ft | 221 kts | 142° |
| 2026-05-07 11:08 | 49.95592 | 8.55529 | 4307 ft | 237 kts | 118° |
| 2026-05-07 11:08 | 49.94795 | 8.57798 | 5552 ft | 242 kts | 119° |
| 2026-05-07 11:08 | 49.94146 | 8.60199 | 6727 ft | 249 kts | 102° |
| 2026-05-07 11:09 | 49.93946 | 8.63010 | 7560 ft | 275 kts | 92° |
| 2026-05-07 11:09 | 49.93782 | 8.66046 | 8566 ft | 289 kts | 99° |
| 2026-05-07 11:09 | 49.93120 | 8.69033 | 9708 ft | 297 kts | 118° |
| 2026-05-07 11:09 | 49.91856 | 8.71583 | 10862 ft | 303 kts | 138° |
| 2026-05-07 11:10 | 49.90161 | 8.73643 | 11553 ft | 326 kts | 143° |
| 2026-05-07 11:10 | 49.88451 | 8.76169 | 12106 ft | 353 kts | 131° |
| 2026-05-07 11:10 | 49.87008 | 8.79402 | 12953 ft | 366 kts | 120° |
| 2026-05-07 11:10 | 49.85783 | 8.82831 | 13925 ft | 371 kts | 120° |
| 2026-05-07 11:11 | 49.84521 | 8.86338 | 14927 ft | 375 kts | 120° |
| 2026-05-07 11:11 | 49.83238 | 8.89876 | 15890 ft | 379 kts | 120° |
| 2026-05-07 11:11 | 49.81940 | 8.93446 | 16838 ft | 383 kts | 120° |
| 2026-05-07 11:11 | 49.80625 | 8.97052 | 17755 ft | 387 kts | 120° |
| 2026-05-07 11:12 | 49.79296 | 9.00691 | 18653 ft | 390 kts | 121° |
| 2026-05-07 11:12 | 49.77935 | 9.04412 | 19539 ft | 394 kts | 120° |
| 2026-05-07 11:12 | 49.76649 | 9.08127 | 20367 ft | 399 kts | 115° |
| 2026-05-07 11:12 | 49.75712 | 9.12205 | 21170 ft | 404 kts | 105° |
| 2026-05-07 11:13 | 49.74952 | 9.16406 | 21925 ft | 408 kts | 111° |
| 2026-05-07 11:13 | 49.73659 | 9.20309 | 22629 ft | 410 kts | 124° |
| 2026-05-07 11:13 | 49.71900 | 9.23787 | 22934 ft | 410 kts | 133° |
| 2026-05-07 11:13 | 49.69966 | 9.27054 | 23028 ft | 416 kts | 133° |
| 2026-05-07 11:14 | 49.68021 | 9.30419 | 23037 ft | 422 kts | 132° |
| 2026-05-07 11:14 | 49.66084 | 9.33838 | 23032 ft | 423 kts | 132° |
| 2026-05-07 11:14 | 49.64160 | 9.37269 | 23031 ft | 423 kts | 131° |
| 2026-05-07 11:14 | 49.62233 | 9.40704 | 23032 ft | 423 kts | 131° |
| 2026-05-07 11:15 | 49.60302 | 9.44132 | 23037 ft | 423 kts | 131° |
| 2026-05-07 11:15 | 49.58366 | 9.47550 | 23031 ft | 423 kts | 132° |
| 2026-05-07 11:15 | 49.56434 | 9.50953 | 23031 ft | 422 kts | 132° |
| 2026-05-07 11:15 | 49.54495 | 9.54354 | 23016 ft | 422 kts | 132° |
| 2026-05-07 11:16 | 49.52552 | 9.57749 | 23034 ft | 422 kts | 132° |
| 2026-05-07 11:16 | 49.50610 | 9.61140 | 23032 ft | 422 kts | 132° |
| 2026-05-07 11:16 | 49.48697 | 9.64488 | 23024 ft | 422 kts | 132° |
| 2026-05-07 11:16 | 49.46757 | 9.67870 | 23024 ft | 422 kts | 132° |
| 2026-05-07 11:17 | 49.44815 | 9.71248 | 23021 ft | 421 kts | 133° |
| 2026-05-07 11:17 | 49.42874 | 9.74621 | 23028 ft | 422 kts | 133° |
| 2026-05-07 11:17 | 49.41005 | 9.78080 | 23015 ft | 422 kts | 126° |
| 2026-05-07 11:17 | 49.39520 | 9.81970 | 23014 ft | 423 kts | 116° |
| 2026-05-07 11:18 | 49.38505 | 9.86211 | 23015 ft | 425 kts | 106° |
| 2026-05-07 11:18 | 49.37992 | 9.90672 | 23013 ft | 426 kts | 96° |
| 2026-05-07 11:18 | 49.37791 | 9.95211 | 23015 ft | 426 kts | 95° |
| 2026-05-07 11:18 | 49.37579 | 9.99746 | 23013 ft | 426 kts | 95° |
| 2026-05-07 11:19 | 49.37355 | 10.04276 | 23013 ft | 426 kts | 96° |
| 2026-05-07 11:19 | 49.37127 | 10.08802 | 23012 ft | 426 kts | 96° |
| 2026-05-07 11:19 | 49.36899 | 10.13333 | 22963 ft | 426 kts | 96° |
| 2026-05-07 11:19 | 49.36673 | 10.17828 | 22411 ft | 419 kts | 96° |
| 2026-05-07 11:20 | 49.36451 | 10.22261 | 21641 ft | 414 kts | 96° |
| 2026-05-07 11:20 | 49.36231 | 10.26642 | 20897 ft | 411 kts | 96° |
| 2026-05-07 11:20 | 49.36011 | 10.30996 | 20178 ft | 407 kts | 96° |
| 2026-05-07 11:20 | 49.35790 | 10.35312 | 19504 ft | 404 kts | 96° |
| 2026-05-07 11:21 | 49.35571 | 10.39587 | 18856 ft | 400 kts | 96° |
| 2026-05-07 11:21 | 49.35354 | 10.43817 | 18198 ft | 396 kts | 97° |
| 2026-05-07 11:21 | 49.35314 | 10.48032 | 17534 ft | 395 kts | 88° |
| 2026-05-07 11:21 | 49.35751 | 10.52184 | 16870 ft | 395 kts | 77° |
| 2026-05-07 11:22 | 49.36652 | 10.56148 | 16222 ft | 393 kts | 66° |
| 2026-05-07 11:22 | 49.37977 | 10.59788 | 15551 ft | 390 kts | 56° |
| 2026-05-07 11:22 | 49.39683 | 10.62997 | 14884 ft | 386 kts | 46° |
| 2026-05-07 11:22 | 49.41465 | 10.66039 | 14380 ft | 379 kts | 55° |
| 2026-05-07 11:23 | 49.42592 | 10.69568 | 14206 ft | 361 kts | 73° |
| 2026-05-07 11:23 | 49.43002 | 10.73310 | 13783 ft | 352 kts | 90° |
| 2026-05-07 11:23 | 49.42765 | 10.77020 | 13255 ft | 347 kts | 100° |
| 2026-05-07 11:23 | 49.42414 | 10.80659 | 12693 ft | 345 kts | 100° |
| 2026-05-07 11:24 | 49.42059 | 10.84300 | 12112 ft | 344 kts | 100° |
| 2026-05-07 11:24 | 49.41706 | 10.87912 | 11672 ft | 338 kts | 100° |
| 2026-05-07 11:24 | 49.41371 | 10.91375 | 11532 ft | 319 kts | 100° |
| 2026-05-07 11:24 | 49.41049 | 10.94696 | 11265 ft | 311 kts | 100° |
| 2026-05-07 11:25 | 49.40729 | 10.97970 | 10898 ft | 308 kts | 100° |
| 2026-05-07 11:25 | 49.40411 | 11.01205 | 10497 ft | 305 kts | 100° |
| 2026-05-07 11:25 | 49.40094 | 11.04407 | 10071 ft | 303 kts | 100° |
| 2026-05-07 11:25 | 49.39779 | 11.07593 | 9619 ft | 301 kts | 100° |
| 2026-05-07 11:26 | 49.39468 | 11.10754 | 9183 ft | 298 kts | 99° |
| 2026-05-07 11:26 | 49.39163 | 11.13901 | 8730 ft | 297 kts | 100° |
| 2026-05-07 11:26 | 49.38858 | 11.17023 | 8272 ft | 294 kts | 100° |
| 2026-05-07 11:26 | 49.38549 | 11.20118 | 7779 ft | 293 kts | 100° |
| 2026-05-07 11:27 | 49.38239 | 11.23204 | 7306 ft | 292 kts | 100° |
| 2026-05-07 11:27 | 49.37935 | 11.26231 | 7074 ft | 279 kts | 100° |
| 2026-05-07 11:27 | 49.37646 | 11.29115 | 6718 ft | 270 kts | 100° |
| 2026-05-07 11:27 | 49.37369 | 11.31885 | 6570 ft | 254 kts | 100° |
| 2026-05-07 11:28 | 49.37104 | 11.34515 | 6300 ft | 247 kts | 100° |
| 2026-05-07 11:28 | 49.36842 | 11.37102 | 5911 ft | 244 kts | 101° |
| 2026-05-07 11:28 | 49.36584 | 11.39667 | 5510 ft | 243 kts | 100° |
| 2026-05-07 11:28 | 49.36387 | 11.42232 | 5116 ft | 242 kts | 89° |
| 2026-05-07 11:29 | 49.36784 | 11.44667 | 4917 ft | 232 kts | 63° |
| 2026-05-07 11:29 | 49.37784 | 11.46530 | 4693 ft | 221 kts | 34° |
| 2026-05-07 11:29 | 49.39100 | 11.47506 | 4586 ft | 202 kts | 12° |
| 2026-05-07 11:29 | 49.40454 | 11.47644 | 4142 ft | 196 kts | 348° |
| 2026-05-07 11:30 | 49.41717 | 11.46975 | 3993 ft | 192 kts | 327° |
| 2026-05-07 11:30 | 49.42863 | 11.45911 | 3988 ft | 193 kts | 325° |
| 2026-05-07 11:30 | 49.44019 | 11.44849 | 3990 ft | 194 kts | 325° |
| 2026-05-07 11:30 | 49.45177 | 11.43773 | 3979 ft | 193 kts | 323° |
| 2026-05-07 11:31 | 49.46103 | 11.42323 | 3984 ft | 189 kts | 300° |
| 2026-05-07 11:31 | 49.46593 | 11.40476 | 3986 ft | 186 kts | 279° |
| 2026-05-07 11:31 | 49.46791 | 11.38526 | 3998 ft | 180 kts | 277° |
| 2026-05-07 11:31 | 49.46975 | 11.36753 | 3988 ft | 153 kts | 277° |
| 2026-05-07 11:32 | 49.47253 | 11.34014 | 3985 ft | 117 kts | 275° |
| 2026-05-07 11:32 | 49.47377 | 11.32788 | 3930 ft | 115 kts | 276° |
| 2026-05-07 11:32 | 49.47498 | 11.31590 | 3821 ft | 113 kts | 275° |
| 2026-05-07 11:33 | 49.47617 | 11.30406 | 3696 ft | 112 kts | 276° |
| 2026-05-07 11:33 | 49.47735 | 11.29228 | 3559 ft | 111 kts | 276° |
| 2026-05-07 11:33 | 49.47853 | 11.28051 | 3418 ft | 112 kts | 275° |
| 2026-05-07 11:33 | 49.47971 | 11.26881 | 3274 ft | 110 kts | 276° |
| 2026-05-07 11:34 | 49.48087 | 11.25719 | 3131 ft | 110 kts | 276° |
| 2026-05-07 11:34 | 49.48204 | 11.24550 | 2983 ft | 110 kts | 276° |
| 2026-05-07 11:34 | 49.48321 | 11.23388 | 2832 ft | 109 kts | 276° |
| 2026-05-07 11:34 | 49.48437 | 11.22227 | 2689 ft | 110 kts | 276° |
| 2026-05-07 11:35 | 49.48553 | 11.21064 | 2533 ft | 110 kts | 276° |
| 2026-05-07 11:35 | 49.48669 | 11.19906 | 2402 ft | 109 kts | 273° |
| 2026-05-07 11:35 | 49.48784 | 11.18747 | 2260 ft | 110 kts | 274° |
| 2026-05-07 11:35 | 49.48899 | 11.17592 | 2111 ft | 109 kts | 275° |
| 2026-05-07 11:36 | 49.49013 | 11.16452 | 1973 ft | 109 kts | 275° |
| 2026-05-07 11:36 | 49.49128 | 11.15295 | 1823 ft | 110 kts | 275° |
| 2026-05-07 11:36 | 49.49242 | 11.14139 | 1678 ft | 110 kts | 275° |
| 2026-05-07 11:36 | 49.49360 | 11.12961 | 1474 ft | 123 kts | 281° |
| 2026-05-07 11:37 | 49.49468 | 11.11707 | 1351 ft | 119 kts | 272° |
| 2026-05-07 11:37 | 49.49609 | 11.10479 | 1208 ft | 115 kts | 266° |
| 2026-05-07 11:37 | 49.49728 | 11.09262 | 1047 ft | 111 kts | 271° |
| 2026-05-07 11:37 | 49.49810 | 11.08346 | 1030 ft | 62 kts | 280° |
| 2026-05-07 11:38 | 49.49860 | 11.07898 | 1034 ft | 32 kts | 278° |
| 2026-05-07 11:38 | 49.49863 | 11.07651 | 1032 ft | 16 kts | 223° |
| 2026-05-07 11:38 | 49.49792 | 11.07677 | 1032 ft | 11 kts | 148° |
| 2026-05-07 11:38 | 49.49722 | 11.07733 | 1033 ft | 12 kts | 156° |
| 2026-05-07 11:39 | 49.49663 | 11.07772 | 1031 ft | 9 kts | 165° |
| 2026-05-07 11:39 | 49.49596 | 11.07746 | 1030 ft | 11 kts | 205° |
| 2026-05-07 11:39 | 49.49527 | 11.07726 | 1028 ft | 0 kts | 189° |